Time;durP1;ratioP1;P1;durP2;ratioP2;P2;SDS_P1;SDS_P2;PMS_P1;PMS_P2;Temp;Humidity;BMP_temperature;BMP_pressure;BME280_temperature;BME280_humidity;BME280_pressure;Samples;Min_cycle;Max_cycle;Signal;HPM_P1;HPM_P2
2023/05/27 00:00:25;;;;;;;1999.90;999.90;;;;;;;19.02;40.68;103094.28;5051009;28;20083;-70
2023/05/27 00:02:51;;;;;;;1999.90;999.90;;;;;;;18.63;41.88;103101.66;5066702;28;20139;-71
2023/05/27 00:05:16;;;;;;;1999.90;999.90;;;;;;;18.13;42.59;103099.38;5067276;28;20441;-71
2023/05/27 00:07:42;;;;;;;1999.90;999.90;;;;;;;19.01;40.90;103087.22;5066966;28;20083;-70
2023/05/27 00:10:07;;;;;;;1999.90;999.90;;;;;;;19.56;39.56;103101.63;5050839;28;20025;-70
2023/05/27 00:12:33;;;;;;;1999.90;999.90;;;;;;;19.41;40.30;103092.13;5067259;28;20120;-70
2023/05/27 00:14:58;;;;;;;1999.90;999.90;;;;;;;18.84;40.78;103084.69;5067096;28;20020;-69
2023/05/27 00:17:25;;;;;;;1999.90;999.90;;;;;;;19.27;40.51;103084.28;5051061;28;20447;-69
2023/05/27 00:19:51;;;;;;;1999.90;999.90;;;;;;;18.79;41.67;103089.16;5051095;28;20108;-69
2023/05/27 00:22:17;;;;;;;1999.90;999.90;;;;;;;19.17;40.59;103081.78;5050571;28;20070;-70
2023/05/27 00:24:42;;;;;;;1999.90;999.90;;;;;;;18.50;41.37;103079.69;5050567;28;20028;-71
2023/05/27 00:27:09;;;;;;;1999.90;999.90;;;;;;;18.82;40.79;103082.06;5067211;28;20021;-70
2023/05/27 00:29:35;;;;;;;1999.90;999.90;;;;;;;19.41;39.33;103070.00;5050185;28;20032;-71
2023/05/27 00:32:02;;;;;;;1999.90;999.90;;;;;;;18.22;41.14;103068.44;5050956;28;20029;-70
2023/05/27 00:34:28;;;;;;;1999.90;999.90;;;;;;;18.61;40.96;103067.22;5051580;28;20021;-70
2023/05/27 00:36:54;;;;;;;1999.90;999.90;;;;;;;18.80;40.71;103064.44;5065940;28;20049;-70
2023/05/27 00:39:19;;;;;;;1999.90;999.90;;;;;;;17.78;42.67;103073.91;5050201;28;20448;-70
2023/05/27 00:41:48;;;;;;;1999.90;999.90;;;;;;;18.07;42.05;103070.28;5066002;28;20081;-70
2023/05/27 00:44:14;;;;;;;1999.90;999.90;;;;;;;17.91;42.92;103071.22;5066342;28;20028;-70
2023/05/27 00:46:40;;;;;;;1999.90;999.90;;;;;;;18.12;41.93;103068.47;5066832;28;20024;-70
2023/05/27 00:49:05;;;;;;;1999.90;999.90;;;;;;;18.47;41.52;103062.03;5066465;28;20108;-69
2023/05/27 00:51:31;;;;;;;1999.90;999.90;;;;;;;18.19;41.96;103064.03;5050752;28;20051;-71
2023/05/27 00:53:56;;;;;;;1999.90;999.90;;;;;;;18.08;41.88;103050.88;5050501;28;20087;-70
2023/05/27 00:56:22;;;;;;;1999.90;999.90;;;;;;;17.62;43.42;103065.16;5051200;28;20064;-69
2023/05/27 00:58:47;;;;;;;1999.90;999.90;;;;;;;16.77;45.51;103070.66;5048396;28;20531;-69
2023/05/27 01:01:13;;;;;;;1999.90;999.90;;;;;;;17.81;42.78;103068.59;5049694;28;20028;-71
2023/05/27 01:03:41;;;;;;;1999.90;999.90;;;;;;;18.29;42.07;103075.44;5066236;28;20025;-69
2023/05/27 01:06:36;;;;;;;1999.90;999.90;;;;;;;18.88;41.34;103065.28;5050333;28;20025;-70
2023/05/27 01:09:05;;;;;;;1999.90;999.90;;;;;;;18.49;42.22;103059.38;5065520;28;20580;-69
2023/05/27 01:11:43;;;;;;;1999.90;999.90;;;;;;;19.02;41.44;103062.47;5050939;28;20060;-69
2023/05/27 01:14:11;;;;;;;1999.90;999.90;;;;;;;18.96;41.42;103062.56;5048871;28;20363;-69
2023/05/27 01:16:43;;;;;;;1999.90;999.90;;;;;;;18.99;40.89;103062.50;5049311;28;20075;-70
2023/05/27 01:19:14;;;;;;;1999.90;999.90;;;;;;;18.54;41.71;103057.59;5050028;28;20140;-71
2023/05/27 01:21:44;;;;;;;1999.90;999.90;;;;;;;17.36;44.90;103048.53;5065661;28;20060;-70
2023/05/27 01:24:10;;;;;;;1999.90;999.90;;;;;;;17.85;42.77;103063.31;5049339;28;20025;-70
2023/05/27 01:26:36;;;;;;;1999.90;999.90;;;;;;;18.19;42.89;103049.91;5049826;28;20056;-69
2023/05/27 01:29:02;;;;;;;1999.90;999.90;;;;;;;17.80;43.18;103061.59;5049756;28;20511;-70
2023/05/27 01:31:35;;;;;;;1999.90;999.90;;;;;;;18.90;41.23;103052.88;5050587;28;20082;-70
2023/05/27 01:34:07;;;;;;;1999.90;999.90;;;;;;;18.78;41.86;103037.97;5049104;28;20422;-70
2023/05/27 01:36:40;;;;;;;1999.90;999.90;;;;;;;17.57;43.64;103053.75;5065658;28;20029;-70
2023/05/27 01:39:08;;;;;;;;;;;;;;;17.44;44.20;103058.19;5065897;28;20131;-71
2023/05/27 01:41:34;;;;;;;1999.90;999.90;;;;;;;17.35;44.58;103058.25;5064583;28;19919;-70
2023/05/27 01:44:00;;;;;;;1999.90;999.90;;;;;;;18.44;42.31;103043.53;5065249;28;20029;-70
2023/05/27 01:46:25;;;;;;;1999.90;999.90;;;;;;;17.74;42.98;103048.38;5050376;28;20032;-69
2023/05/27 01:48:51;;;;;;;1999.90;999.90;;;;;;;17.03;45.29;103051.25;5048909;28;20036;-69
2023/05/27 01:51:16;;;;;;;1999.90;999.90;;;;;;;17.55;43.94;103047.56;5065977;28;20021;-69
2023/05/27 01:53:41;;;;;;;1999.90;999.90;;;;;;;17.27;44.57;103054.75;5048260;28;20033;-69
2023/05/27 01:56:07;;;;;;;1999.90;999.90;;;;;;;18.36;42.38;103040.06;5048221;28;20086;-70
2023/05/27 01:58:32;;;;;;;1999.90;999.90;;;;;;;17.96;43.00;103056.22;5048225;28;20075;-70
2023/05/27 02:00:58;;;;;;;1999.90;999.90;;;;;;;18.09;42.29;103055.28;5064957;28;20036;-70
2023/05/27 02:03:23;;;;;;;1999.90;999.90;;;;;;;17.20;44.09;103055.63;5047800;28;20031;-70
2023/05/27 02:05:48;;;;;;;1999.90;999.90;;;;;;;16.92;45.18;103053.91;5049627;28;20086;-69
2023/05/27 02:08:14;;;;;;;1999.90;999.90;;;;;;;17.02;45.49;103054.81;5048920;28;20033;-69
2023/05/27 02:10:39;;;;;;;1999.90;999.90;;;;;;;17.39;43.76;103057.34;5048157;28;20481;-69
2023/05/27 02:13:05;;;;;;;1999.90;999.90;;;;;;;16.57;45.66;103049.50;5048126;28;20124;-69
2023/05/27 02:15:31;;;;;;;1999.90;999.90;;;;;;;16.78;44.96;103051.25;5048825;28;20095;-70
2023/05/27 02:17:56;;;;;;;1999.90;999.90;;;;;;;17.69;43.91;103047.50;5048299;28;20032;-69
2023/05/27 02:20:22;;;;;;;1999.90;999.90;;;;;;;17.18;44.79;103047.69;5048280;28;20028;-69
2023/05/27 02:22:50;;;;;;;1999.90;999.90;;;;;;;17.41;44.25;103052.91;5048713;28;20035;-69
2023/05/27 02:25:15;;;;;;;1999.90;999.90;;;;;;;17.61;43.63;103054.59;5065063;28;20052;-70
2023/05/27 02:27:43;;;;;;;1999.90;999.90;;;;;;;16.76;45.10;103053.03;5049438;28;20033;-70
2023/05/27 02:30:10;;;;;;;1999.90;999.90;;;;;;;17.19;44.75;103056.53;5064249;28;20056;-69
2023/05/27 02:32:35;;;;;;;1999.90;999.90;;;;;;;17.00;44.19;103047.75;5064935;28;20115;-70
2023/05/27 02:35:01;;;;;;;1999.90;999.90;;;;;;;17.64;43.80;103047.53;5052015;28;20536;-69
2023/05/27 02:37:27;;;;;;;1999.90;999.90;;;;;;;16.67;45.28;103050.38;5068409;28;20033;-69
2023/05/27 02:39:54;;;;;;;1999.90;999.90;;;;;;;17.20;43.84;103047.69;5068664;28;20115;-69
2023/05/27 02:42:19;;;;;;;1999.90;999.90;;;;;;;17.67;43.25;103049.28;5068790;28;20021;-71
2023/05/27 02:44:45;;;;;;;1999.90;999.90;;;;;;;17.40;44.65;103045.00;5051461;28;20130;-69
2023/05/27 02:47:10;;;;;;;1999.90;999.90;;;;;;;17.92;42.85;103044.78;5052219;28;20480;-70
2023/05/27 02:49:36;;;;;;;1999.90;999.90;;;;;;;17.43;43.75;103050.28;5052049;28;20025;-69
2023/05/27 02:52:01;;;;;;;1999.90;999.90;;;;;;;17.14;44.58;103051.22;5051096;28;20121;-70
2023/05/27 02:54:27;;;;;;;1999.90;999.90;;;;;;;17.68;43.54;103056.34;5053494;28;20067;-70
2023/05/27 02:56:52;;;;;;;1999.90;999.90;;;;;;;16.98;44.96;103047.75;5052699;28;20064;-70
2023/05/27 02:59:17;;;;;;;1999.90;999.90;;;;;;;16.31;46.00;103049.50;5051277;28;20053;-70
2023/05/27 03:01:43;;;;;;;1999.90;999.90;;;;;;;17.04;44.52;103045.09;5052899;28;20036;-69
2023/05/27 03:04:08;;;;;;;1999.90;999.90;;;;;;;17.33;43.67;103049.41;5053394;28;20051;-70
2023/05/27 03:06:33;;;;;;;1999.90;999.90;;;;;;;17.25;44.68;103051.22;5067685;28;20064;-69
2023/05/27 03:08:59;;;;;;;1999.90;999.90;;;;;;;16.64;45.58;103050.41;5051533;28;20035;-70
2023/05/27 03:11:26;;;;;;;1999.90;999.90;;;;;;;17.52;43.99;103046.72;5051165;28;20086;-70
2023/05/27 03:13:51;;;;;;;1999.90;999.90;;;;;;;17.19;44.09;103040.66;5051181;28;20037;-70
2023/05/27 03:16:19;;;;;;;1999.90;999.90;;;;;;;17.26;43.67;103039.75;5051712;28;20083;-70
2023/05/27 03:18:45;;;;;;;1999.90;999.90;;;;;;;16.96;44.92;103038.94;5050806;28;20025;-69
2023/05/27 03:21:10;;;;;;;1999.90;999.90;;;;;;;16.82;44.74;103035.44;5052861;28;20039;-70
2023/05/27 03:23:36;;;;;;;1999.90;999.90;;;;;;;17.71;43.37;103044.84;5051854;28;20051;-69
2023/05/27 03:26:01;;;;;;;1999.90;999.90;;;;;;;17.50;43.58;103045.84;5066948;28;20052;-70
2023/05/27 03:28:27;;;;;;;1999.90;999.90;;;;;;;16.95;44.62;103047.75;5068139;28;20021;-69
2023/05/27 03:30:55;;;;;;;1999.90;999.90;;;;;;;16.58;45.97;103042.47;5051331;28;20029;-69
2023/05/27 03:33:22;;;;;;;1999.90;999.90;;;;;;;17.30;44.22;103045.03;5050195;28;20040;-71
2023/05/27 03:35:48;;;;;;;1999.90;999.90;;;;;;;17.18;44.33;103049.47;5050808;28;20043;-69
2023/05/27 03:38:13;;;;;;;1999.90;999.90;;;;;;;16.54;45.18;103044.25;5052612;28;20116;-69
2023/05/27 03:40:39;;;;;;;1999.90;999.90;;;;;;;16.73;45.46;103031.91;5050203;28;20468;-69
2023/05/27 03:43:04;;;;;;;1999.90;999.90;;;;;;;16.70;45.51;103037.19;5050630;28;20484;-69
2023/05/27 03:45:30;;;;;;;1999.90;999.90;;;;;;;15.85;47.17;103034.44;5066592;28;20087;-70
2023/05/27 03:47:56;;;;;;;1999.90;999.90;;;;;;;16.62;46.19;103029.28;5066462;28;20163;-70
2023/05/27 03:50:21;;;;;;;1999.90;999.90;;;;;;;17.04;45.38;103026.59;5052447;28;20143;-70
2023/05/27 03:52:47;;;;;;;1999.90;999.90;;;;;;;17.13;44.75;103025.69;5066936;28;20111;-70
2023/05/27 03:55:12;;;;;;;1999.90;999.90;;;;;;;17.37;44.98;103024.75;5051395;28;20408;-69
2023/05/27 03:57:37;;;;;;;1999.90;999.90;;;;;;;16.96;45.05;103021.31;5067549;28;20584;-71
2023/05/27 04:00:12;;;;;;;1999.90;999.90;;;;;;;16.62;45.59;103018.72;5051332;28;20056;-70
2023/05/27 04:02:39;;;;;;;1999.90;999.90;;;;;;;17.04;45.40;103026.59;5050173;28;20477;-71
2023/05/27 04:05:04;;;;;;;1999.90;999.90;;;;;;;16.99;45.62;103016.94;5051506;28;20029;-71
2023/05/27 04:07:31;;;;;;;1999.90;999.90;;;;;;;16.91;45.72;103014.28;5050195;28;20025;-71
2023/05/27 04:09:56;;;;;;;1999.90;999.90;;;;;;;16.90;45.21;103015.19;5050975;28;20102;-71
2023/05/27 04:12:22;;;;;;;1999.90;999.90;;;;;;;16.91;45.22;103019.56;5052000;28;20497;-70
2023/05/27 04:14:47;;;;;;;1999.90;999.90;;;;;;;16.25;46.08;103020.47;5049506;28;20118;-71
2023/05/27 04:17:13;;;;;;;1999.90;999.90;;;;;;;17.20;44.95;103010.69;5052032;28;20413;-69
2023/05/27 04:19:38;;;;;;;1999.90;999.90;;;;;;;17.30;44.76;103015.09;5050461;28;20097;-69
2023/05/27 04:22:04;;;;;;;1999.90;999.90;;;;;;;17.42;44.59;103016.78;5050654;28;20069;-70
2023/05/27 04:24:30;;;;;;;1999.90;999.90;;;;;;;17.48;44.33;103015.91;5067309;28;20032;-69
2023/05/27 04:26:55;;;;;;;1999.90;999.90;;;;;;;17.54;44.08;103015.84;5049923;28;20025;-69
2023/05/27 04:29:22;;;;;;;1999.90;999.90;;;;;;;17.78;43.80;103018.38;5066363;28;20060;-69
2023/05/27 04:31:48;;;;;;;1999.90;999.90;;;;;;;17.30;43.98;103023.88;5051221;28;20024;-69
2023/05/27 04:34:13;;;;;;;1999.90;999.90;;;;;;;17.46;43.93;103014.13;5066979;28;20515;-69
2023/05/27 04:36:39;;;;;;;1999.90;999.90;;;;;;;17.09;45.18;103024.84;5066347;28;20025;-70
2023/05/27 04:39:04;;;;;;;1999.90;999.90;;;;;;;17.62;44.35;103022.00;5066015;28;20020;-70
2023/05/27 04:41:32;;;;;;;1999.90;999.90;;;;;;;17.26;45.15;103021.25;5050173;28;20108;-70
2023/05/27 04:43:58;;;;;;;1999.90;999.90;;;;;;;18.76;42.75;103015.88;5065498;28;20063;-70
2023/05/27 04:46:24;;;;;;;1999.90;999.90;;;;;;;19.93;40.92;103010.97;5050044;28;20099;-70
2023/05/27 04:48:52;;;;;;;1999.90;999.90;;;;;;;20.01;40.55;103008.22;5050177;28;20029;-69
2023/05/27 04:51:18;;;;;;;1999.90;999.90;;;;;;;19.81;40.06;103022.66;5050255;28;20032;-70
2023/05/27 04:53:45;;;;;;;1999.90;999.90;;;;;;;18.90;40.65;103025.50;5049456;28;20021;-69
2023/05/27 04:56:14;;;;;;;1999.90;999.90;;;;;;;18.64;41.23;103023.94;5049375;28;20020;-69
2023/05/27 04:58:39;;;;;;;1999.90;999.90;;;;;;;17.58;43.93;103028.19;5065473;28;20457;-69
2023/05/27 05:01:05;;;;;;;1999.90;999.90;;;;;;;18.71;41.56;103023.03;5065924;28;20116;-70
2023/05/27 05:03:39;;;;;;;1999.90;999.90;;;;;;;18.22;43.39;103015.50;5066163;28;20020;-69
2023/05/27 05:06:04;;;;;;;1999.90;999.90;;;;;;;17.43;44.48;103019.44;5048592;28;20036;-70
2023/05/27 05:08:30;;;;;;;1999.90;999.90;;;;;;;17.81;43.91;103021.00;5066193;28;20017;-69
2023/05/27 05:10:55;;;;;;;1999.90;999.90;;;;;;;17.55;44.11;103007.03;5050023;28;20420;-70
2023/05/27 05:13:21;;;;;;;1999.90;999.90;;;;;;;17.17;44.63;103010.72;5065510;28;20096;-71
2023/05/27 05:15:47;;;;;;;1999.90;999.90;;;;;;;18.45;42.62;103004.69;5065344;28;20025;-70
2023/05/27 05:18:12;;;;;;;1999.90;999.90;;;;;;;18.19;42.64;102999.63;5065602;28;20033;-71
2023/05/27 05:20:38;;;;;;;1999.90;999.90;;;;;;;17.75;43.57;103010.47;5049378;28;20028;-70
2023/05/27 05:23:04;;;;;;;1999.90;999.90;;;;;;;18.24;42.37;102997.81;5065556;28;20521;-70
2023/05/27 05:25:37;;;;;;;1999.90;999.90;;;;;;;18.80;41.65;103001.72;5049944;28;20428;-69
2023/05/27 05:28:03;;;;;;;1999.90;999.90;;;;;;;18.27;42.79;103008.38;5048936;28;20024;-70
2023/05/27 05:30:28;;;;;;;1999.90;999.90;;;;;;;18.55;42.52;102997.56;5048783;28;20036;-69
2023/05/27 05:32:54;;;;;;;1999.90;999.90;;;;;;;17.90;43.39;102998.03;5047749;28;20037;-69
2023/05/27 05:35:19;;;;;;;1999.90;999.90;;;;;;;18.11;43.11;102995.25;5050237;28;20029;-70
2023/05/27 05:37:45;;;;;;;1999.90;999.90;;;;;;;18.34;42.32;102983.63;5048614;28;20024;-70
2023/05/27 05:40:11;;;;;;;1999.90;999.90;;;;;;;17.78;44.02;102999.88;5048230;28;20489;-70
2023/05/27 05:42:36;;;;;;;1999.90;999.90;;;;;;;17.61;44.01;102996.41;5050053;28;20380;-69
2023/05/27 05:45:03;;;;;;;1999.90;999.90;;;;;;;18.47;42.82;102994.97;5049629;28;20025;-70
2023/05/27 05:47:28;;;;;;;1999.90;999.90;;;;;;;18.38;42.80;102988.00;5048359;28;20440;-70
2023/05/27 05:49:54;;;;;;;1999.90;999.90;;;;;;;19.24;41.11;102988.03;5049248;28;20032;-70
2023/05/27 05:52:19;;;;;;;1999.90;999.90;;;;;;;19.76;40.41;102982.00;5048772;28;20025;-69
2023/05/27 05:54:45;;;;;;;1999.90;999.90;;;;;;;19.19;41.56;102979.25;5064033;28;20032;-70
2023/05/27 05:57:10;;;;;;;1999.90;999.90;;;;;;;18.89;41.58;102970.75;5065083;28;20035;-69
2023/05/27 05:59:35;;;;;;;1999.90;999.90;;;;;;;18.93;41.42;102983.06;5049756;28;20523;-69
2023/05/27 06:02:01;;;;;;;1999.90;999.90;;;;;;;19.92;40.31;102972.09;5048658;28;20063;-69
2023/05/27 06:04:26;;;;;;;1999.90;999.90;;;;;;;18.87;41.66;102977.81;5048371;28;20495;-69
2023/05/27 06:06:52;;;;;;;1999.90;999.90;;;;;;;19.26;40.76;102980.91;5064622;28;20452;-69
2023/05/27 06:09:17;;;;;;;1999.90;999.90;;;;;;;19.69;40.75;102984.75;5046678;28;20016;-70
2023/05/27 06:11:42;;;;;;;1999.90;999.90;;;;;;;20.49;39.31;102968.47;5048016;28;20465;-69
2023/05/27 06:14:08;;;;;;;1999.90;999.90;;;;;;;20.33;39.19;102966.97;5064863;28;20112;-70
2023/05/27 06:16:35;;;;;;;1999.90;999.90;;;;;;;19.12;41.11;102967.84;5048976;28;20028;-69
2023/05/27 06:19:02;;;;;;;1999.90;999.90;;;;;;;19.56;40.50;102968.16;5064784;28;20467;-70
2023/05/27 06:21:29;;;;;;;1999.90;999.90;;;;;;;18.72;42.46;102969.13;5047372;28;20031;-69
2023/05/27 06:23:55;;;;;;;1999.90;999.90;;;;;;;20.21;40.26;102961.88;5049183;28;20094;-69
2023/05/27 06:26:21;;;;;;;1999.90;999.90;;;;;;;21.55;37.42;102953.13;5048391;28;20218;-69
2023/05/27 06:28:46;;;;;;;1999.90;999.90;;;;;;;22.46;35.32;102950.88;5048496;28;20020;-69
2023/05/27 06:31:11;;;;;;;1999.90;999.90;;;;;;;24.49;33.70;102946.41;5048077;28;20469;-69
2023/05/27 06:33:37;;;;;;;1999.90;999.90;;;;;;;25.68;30.02;102930.41;5065028;28;20035;-69
2023/05/27 06:36:02;;;;;;;1999.90;999.90;;;;;;;24.77;31.05;102942.78;5047168;28;20020;-70
2023/05/27 06:38:28;;;;;;;1999.90;999.90;;;;;;;24.68;31.22;102937.78;5049850;28;20056;-69
2023/05/27 06:40:53;;;;;;;1999.90;999.90;;;;;;;25.74;29.51;102930.97;5064462;28;20020;-71
2023/05/27 06:43:19;;;;;;;1999.90;999.90;;;;;;;26.69;28.58;102929.63;5064195;28;20021;-70
2023/05/27 06:45:44;;;;;;;1999.90;999.90;;;;;;;27.03;28.12;102928.97;5047598;28;20032;-69
2023/05/27 06:48:09;;;;;;;1999.90;999.90;;;;;;;27.81;26.64;102919.88;5064637;28;20103;-70
2023/05/27 06:50:35;;;;;;;1999.90;999.90;;;;;;;27.23;27.32;102925.34;5064223;28;20477;-70
2023/05/27 06:53:00;;;;;;;1999.90;999.90;;;;;;;28.37;26.73;102920.59;5048713;28;20025;-70
2023/05/27 06:55:26;;;;;;;1999.90;999.90;;;;;;;27.13;27.52;102924.03;5064703;28;20421;-70
2023/05/27 06:57:51;;;;;;;1999.90;999.90;;;;;;;27.28;27.84;102917.06;5046903;28;20017;-69
2023/05/27 07:00:17;;;;;;;1999.90;999.90;;;;;;;27.64;27.47;102907.31;5048979;28;20505;-70
2023/05/27 07:02:42;;;;;;;1999.90;999.90;;;;;;;28.02;26.61;102915.28;5064090;28;20024;-70
2023/05/27 07:05:08;;;;;;;1999.90;999.90;;;;;;;27.28;27.21;102929.63;5063915;28;20025;-70
2023/05/27 07:07:37;;;;;;;1999.90;999.90;;;;;;;27.90;26.59;102919.41;5049203;28;20053;-70
2023/05/27 07:10:03;;;;;;;1999.90;999.90;;;;;;;28.17;25.96;102919.84;5047488;28;20381;-70
2023/05/27 07:12:28;;;;;;;1999.90;999.90;;;;;;;27.16;27.08;102923.91;5047150;28;20036;-70
2023/05/27 07:14:54;;;;;;;1999.90;999.90;;;;;;;26.75;28.06;102921.38;5047178;28;20469;-70
2023/05/27 07:17:19;;;;;;;1999.90;999.90;;;;;;;28.33;26.01;102919.03;5047999;28;20556;-70
2023/05/27 07:19:44;;;;;;;1999.90;999.90;;;;;;;29.00;25.50;102916.34;5047355;28;20036;-70
2023/05/27 07:22:10;;;;;;;1999.90;999.90;;;;;;;28.46;26.13;102916.59;5051626;28;20025;-70
2023/05/27 07:24:35;;;;;;;1999.90;999.90;;;;;;;27.87;26.90;102915.06;5051400;28;20025;-70
2023/05/27 07:27:01;;;;;;;1999.90;999.90;;;;;;;29.87;24.72;102905.09;5050783;28;20112;-70
2023/05/27 07:29:26;;;;;;;1999.90;999.90;;;;;;;30.38;24.31;102910.09;5051636;28;20039;-70
2023/05/27 07:31:52;;;;;;;1999.90;999.90;;;;;;;28.40;25.88;102907.88;5049905;28;20028;-70
2023/05/27 07:34:18;;;;;;;1999.90;999.90;;;;;;;30.61;23.49;102907.78;5052589;28;20021;-69
2023/05/27 07:36:43;;;;;;;1999.90;999.90;;;;;;;29.00;24.44;102913.66;5051920;28;20068;-71
2023/05/27 07:39:09;;;;;;;1999.90;999.90;;;;;;;28.66;26.04;102904.75;5052233;28;20029;-70
2023/05/27 07:41:34;;;;;;;1999.90;999.90;;;;;;;29.13;25.87;102906.63;5052645;28;20112;-70
2023/05/27 07:43:59;;;;;;;1999.90;999.90;;;;;;;28.68;25.65;102905.56;5052158;28;20523;-70
2023/05/27 07:46:25;;;;;;;1999.90;999.90;;;;;;;30.76;23.79;102889.75;5051695;28;20382;-70
2023/05/27 07:48:50;;;;;;;1999.90;999.90;;;;;;;31.94;21.92;102889.19;5050782;28;20056;-70
2023/05/27 07:51:16;;;;;;;1999.90;999.90;;;;;;;31.36;22.67;102882.31;5051123;28;20021;-70
2023/05/27 07:53:42;;;;;;;1999.90;999.90;;;;;;;30.25;23.21;102888.41;5049630;28;20125;-69
2023/05/27 07:56:07;;;;;;;1999.90;999.90;;;;;;;30.54;24.12;102891.16;5050993;28;20388;-69
2023/05/27 07:58:33;;;;;;;1999.90;999.90;;;;;;;30.63;23.96;102885.16;5050680;28;20505;-69
2023/05/27 08:00:58;;;;;;;1999.90;999.90;;;;;;;30.14;24.15;102885.50;5050966;28;20032;-71
2023/05/27 08:03:24;;;;;;;1999.90;999.90;;;;;;;31.13;22.75;102882.00;5052269;28;20385;-70
2023/05/27 08:05:49;;;;;;;1999.90;999.90;;;;;;;33.64;21.52;102876.91;5050068;28;20029;-70
2023/05/27 08:08:15;;;;;;;1999.90;999.90;;;;;;;34.89;20.11;102873.47;5050064;28;20103;-70
2023/05/27 08:10:44;;;;;;;1999.90;999.90;;;;;;;33.96;20.31;102876.28;5050687;28;20028;-69
2023/05/27 08:13:09;;;;;;;1999.90;999.90;;;;;;;33.62;21.31;102878.88;5051774;28;20075;-70
2023/05/27 08:15:35;;;;;;;1999.90;999.90;;;;;;;34.50;19.79;102873.88;5049647;28;20496;-71
2023/05/27 08:18:01;;;;;;;1999.90;999.90;;;;;;;35.14;19.88;102872.28;5049982;28;20037;-70
2023/05/27 08:20:27;;;;;;;1999.90;999.90;;;;;;;34.41;19.70;102869.19;5051858;28;20021;-70
2023/05/27 08:22:53;;;;;;;1999.90;999.90;;;;;;;34.99;18.91;102869.88;5049245;28;20017;-70
2023/05/27 08:25:18;;;;;;;1999.90;999.90;;;;;;;34.79;19.48;102867.91;5050357;28;20499;-70
2023/05/27 08:27:57;;;;;;;1999.90;999.90;;;;;;;33.20;20.67;102862.16;5050968;28;20036;-69
2023/05/27 08:30:22;;;;;;;1999.90;999.90;;;;;;;32.29;21.17;102863.38;5051813;28;20025;-70
2023/05/27 08:32:48;;;;;;;1999.90;999.90;;;;;;;34.22;20.07;102854.34;5048710;28;20055;-70
2023/05/27 08:35:14;;;;;;;1999.90;999.90;;;;;;;32.64;21.07;102858.13;5049293;28;20479;-70
2023/05/27 08:37:43;;;;;;;1999.90;999.90;;;;;;;34.31;20.95;102842.78;5050249;28;20036;-70
2023/05/27 08:40:14;;;;;;;1999.90;999.90;;;;;;;33.98;19.75;102838.19;5050215;28;20025;-70
2023/05/27 08:42:43;;;;;;;1999.90;999.90;;;;;;;31.46;21.64;102835.69;5049327;28;20501;-71
2023/05/27 08:45:10;;;;;;;1999.90;999.90;;;;;;;32.64;21.73;102825.66;5049986;28;20029;-71
2023/05/27 08:47:35;;;;;;;1999.90;999.90;;;;;;;33.82;21.06;102819.56;5049741;28;20021;-71
2023/05/27 08:50:02;;;;;;;1999.90;999.90;;;;;;;34.11;19.90;102824.50;5048611;28;20474;-71
2023/05/27 08:52:28;;;;;;;1999.90;999.90;;;;;;;35.35;18.33;102822.56;5049685;28;20029;-71
2023/05/27 08:54:56;;;;;;;1999.90;999.90;;;;;;;35.83;17.54;102822.03;5049271;28;20057;-71
2023/05/27 08:57:26;;;;;;;1999.90;999.90;;;;;;;35.40;18.69;102812.19;5049102;28;20056;-71
2023/05/27 08:59:51;;;;;;;1999.90;999.90;;;;;;;34.76;19.31;102811.13;5048732;28;20057;-71
2023/05/27 09:02:20;;;;;;;1999.90;999.90;;;;;;;34.64;19.21;102816.59;5050971;28;20548;-70
2023/05/27 09:04:46;;;;;;;1999.90;999.90;;;;;;;35.43;18.53;102807.31;5048320;28;20029;-70
2023/05/27 09:07:12;;;;;;;1999.90;999.90;;;;;;;35.18;18.07;102803.09;5049528;28;20029;-71
2023/05/27 09:09:38;;;;;;;1999.90;999.90;;;;;;;36.63;17.33;102801.31;5049357;28;20035;-70
2023/05/27 09:12:05;;;;;;;1999.90;999.90;;;;;;;37.04;17.53;102797.66;5047944;28;20397;-70
2023/05/27 09:14:31;;;;;;;1999.90;999.90;;;;;;;36.72;17.35;102787.84;5049478;28;20044;-71
2023/05/27 09:16:57;;;;;;;1999.90;999.90;;;;;;;37.39;16.66;102788.03;5048579;28;20037;-70
2023/05/27 09:19:23;;;;;;;1999.90;999.90;;;;;;;36.65;18.53;102793.84;5048621;28;20021;-70
2023/05/27 09:21:55;;;;;;;1999.90;999.90;;;;;;;35.09;19.53;102793.00;5050075;28;20060;-71
2023/05/27 09:24:23;;;;;;;1999.90;999.90;;;;;;;35.56;17.69;102785.38;5048267;28;20627;-70
2023/05/27 09:26:51;;;;;;;1999.90;999.90;;;;;;;36.08;20.42;102782.66;5049781;28;20485;-70
2023/05/27 09:29:19;;;;;;;1999.90;999.90;;;;;;;36.45;17.87;102790.25;5049051;28;20386;-70
2023/05/27 09:31:44;;;;;;;1999.90;999.90;;;;;;;34.54;20.18;102793.94;5047853;28;20506;-71
2023/05/27 09:34:15;;;;;;;1999.90;999.90;;;;;;;34.24;18.89;102784.56;5048573;28;20120;-71
2023/05/27 09:36:51;;;;;;;1999.90;999.90;;;;;;;35.28;18.83;102787.75;5050099;28;20151;-70
2023/05/27 09:39:22;;;;;;;1999.90;999.90;;;;;;;34.66;19.08;102787.47;5048213;28;20021;-71
2023/05/27 09:41:55;;;;;;;1999.90;999.90;;;;;;;35.24;20.07;102771.81;5048477;28;20088;-70
2023/05/27 09:44:20;;;;;;;1999.90;999.90;;;;;;;33.70;19.93;102777.09;5048696;28;20051;-70
2023/05/27 09:46:46;;;;;;;1999.90;999.90;;;;;;;33.64;19.50;102779.31;5048636;28;20481;-71
2023/05/27 09:49:14;;;;;;;1999.90;999.90;;;;;;;34.92;18.38;102776.28;5049975;28;20079;-70
2023/05/27 09:51:41;;;;;;;1999.90;999.90;;;;;;;35.46;18.10;102771.75;5048575;28;20021;-70
2023/05/27 09:54:07;;;;;;;1999.90;999.90;;;;;;;34.44;19.61;102776.66;5049359;28;20481;-71
2023/05/27 09:56:33;;;;;;;1999.90;999.90;;;;;;;34.07;19.50;102776.91;5048505;28;20017;-70
2023/05/27 09:59:00;;;;;;;1999.90;999.90;;;;;;;35.00;19.55;102756.63;5049208;28;20061;-70
2023/05/27 10:01:30;;;;;;;1999.90;999.90;;;;;;;33.05;19.48;102766.69;5048272;28;20116;-70
2023/05/27 10:03:59;;;;;;;1999.90;999.90;;;;;;;35.25;19.28;102760.81;5047896;28;20028;-70
2023/05/27 10:06:25;;;;;;;1999.90;999.90;;;;;;;34.49;19.31;102763.56;5049238;28;20504;-70
2023/05/27 10:08:55;;;;;;;1999.90;999.90;;;;;;;35.72;18.45;102756.84;5047896;28;20033;-70
2023/05/27 10:11:21;;;;;;;1999.90;999.90;;;;;;;34.93;18.39;102761.72;5048401;28;20369;-70
2023/05/27 10:13:47;;;;;;;1999.90;999.90;;;;;;;34.65;19.85;102769.47;5047092;28;20115;-70
2023/05/27 10:16:22;;;;;;;1999.90;999.90;;;;;;;34.88;18.33;102755.81;5047965;28;20120;-70
2023/05/27 10:18:53;;;;;;;1999.90;999.90;;;;;;;34.92;17.62;102748.28;5047898;28;20419;-70
2023/05/27 10:21:23;;;;;;;1999.90;999.90;;;;;;;35.05;18.87;102742.66;5049007;28;20043;-70
2023/05/27 10:24:02;;;;;;;1999.90;999.90;;;;;;;33.56;18.95;102749.25;5049187;28;20460;-70
2023/05/27 10:26:36;;;;;;;1999.90;999.90;;;;;;;34.67;19.38;102745.75;5048295;28;20029;-69
2023/05/27 10:29:08;;;;;;;1999.90;999.90;;;;;;;35.05;19.54;102732.66;5046769;28;20025;-69
2023/05/27 10:31:34;;;;;;;1999.90;999.90;;;;;;;34.49;20.02;102741.88;5047987;28;20408;-69
2023/05/27 10:33:59;;;;;;;1999.90;999.90;;;;;;;35.21;19.20;102720.47;5047500;28;20021;-69
2023/05/27 10:36:31;;;;;;;1999.90;999.90;;;;;;;35.83;18.06;102726.84;5048875;28;20032;-69
2023/05/27 10:39:04;;;;;;;1999.90;999.90;;;;;;;32.93;20.25;102725.19;5047635;28;20044;-68
2023/05/27 10:41:58;;;;;;;1999.90;999.90;;;;;;;35.97;18.09;102718.34;5049030;28;20174;-69
2023/05/27 10:44:28;;;;;;;1999.90;999.90;;;;;;;36.23;17.78;102727.84;5047447;28;20033;-69